createdAt,value
2017-03-24T00:00:33.823Z,8.20
2017-03-24T00:01:34.843Z,8.16
2017-03-24T00:02:35.803Z,8.26
2017-03-24T00:03:36.575Z,8.27
2017-03-24T00:04:37.346Z,8.26
2017-03-24T00:05:38.115Z,8.24
2017-03-24T00:06:39.139Z,8.19
2017-03-24T00:07:39.910Z,8.28
2017-03-24T00:08:40.679Z,8.23
2017-03-24T00:09:41.450Z,8.23
2017-03-24T00:10:42.225Z,8.18
2017-03-24T00:11:43.245Z,8.24
2017-03-24T00:12:44.014Z,8.28
2017-03-24T00:13:44.792Z,8.26
2017-03-24T00:14:45.560Z,8.24
2017-03-24T00:15:46.326Z,8.19
2017-03-24T00:16:47.350Z,8.26
2017-03-24T00:17:48.122Z,8.20
2017-03-24T00:18:48.931Z,8.33
2017-03-24T00:19:49.666Z,8.37
2017-03-24T00:20:50.437Z,8.28
2017-03-24T00:21:51.460Z,8.27
2017-03-24T00:22:52.229Z,8.19
2017-03-24T00:23:53.000Z,8.26
2017-03-24T00:24:53.771Z,8.23
2017-03-24T00:25:54.544Z,8.28
2017-03-24T00:26:55.564Z,8.24
2017-03-24T00:27:56.336Z,8.19
2017-03-24T00:28:57.132Z,8.20
2017-03-24T00:29:58.113Z,8.28
2017-03-24T00:30:58.885Z,8.26
2017-03-24T00:31:59.909Z,8.31
2017-03-24T00:33:00.681Z,8.37
2017-03-24T00:34:01.449Z,8.37
2017-03-24T00:35:02.222Z,8.30
2017-03-24T00:36:02.990Z,8.28
2017-03-24T00:37:04.012Z,8.18
2017-03-24T00:38:04.784Z,8.26
2017-03-24T00:39:05.554Z,8.26
2017-03-24T00:40:06.326Z,8.26
2017-03-24T00:41:07.099Z,8.31
2017-03-24T00:42:08.123Z,8.27
2017-03-24T00:43:08.890Z,8.24
2017-03-24T00:44:09.662Z,8.27
2017-03-24T00:45:10.434Z,8.20
2017-03-24T00:46:11.203Z,8.30
2017-03-24T00:47:12.225Z,8.23
2017-03-24T00:48:12.995Z,8.24
2017-03-24T00:49:13.767Z,8.27
2017-03-24T00:50:14.537Z,8.28
2017-03-24T00:51:15.309Z,8.26
2017-03-24T00:52:16.328Z,8.33
2017-03-24T00:53:17.100Z,8.26
2017-03-24T00:54:17.873Z,8.27
2017-03-24T00:55:18.642Z,8.26
2017-03-24T00:56:19.414Z,8.33
2017-03-24T00:57:20.438Z,8.19
2017-03-24T00:58:21.208Z,8.20
2017-03-24T00:59:21.982Z,8.18
2017-03-24T01:00:22.751Z,8.26
2017-03-24T01:01:23.523Z,8.24
2017-03-24T01:02:24.546Z,8.23
2017-03-24T01:03:25.319Z,8.28
2017-03-24T01:04:26.089Z,8.24
2017-03-24T01:05:26.861Z,8.30
2017-03-24T01:06:27.631Z,8.23
2017-03-24T01:07:28.654Z,8.24
2017-03-24T01:08:29.426Z,8.26
2017-03-24T01:09:30.197Z,8.20
2017-03-24T01:10:30.968Z,8.27
2017-03-24T01:11:31.739Z,8.20
2017-03-24T01:12:32.759Z,8.26
2017-03-24T01:13:33.531Z,8.28
2017-03-24T01:14:34.489Z,8.30
2017-03-24T01:15:35.261Z,8.30
2017-03-24T01:16:36.032Z,8.27
2017-03-24T01:17:37.053Z,8.28
2017-03-24T01:18:37.824Z,8.31
2017-03-24T01:19:38.595Z,8.23
2017-03-24T01:20:39.368Z,8.27
2017-03-24T01:21:40.146Z,8.26
2017-03-24T01:22:41.161Z,8.20
2017-03-24T01:23:41.933Z,8.26
2017-03-24T01:24:42.705Z,8.24
2017-03-24T01:25:43.476Z,8.23
2017-03-24T01:26:44.248Z,8.16
2017-03-24T01:27:45.271Z,8.28
2017-03-24T01:28:46.041Z,8.20
2017-03-24T01:29:46.812Z,8.16
2017-03-24T01:30:47.584Z,8.26
2017-03-24T01:31:48.357Z,8.18
2017-03-24T01:32:49.377Z,8.13
2017-03-24T01:33:50.150Z,8.13
2017-03-24T01:34:50.920Z,8.19
2017-03-24T01:35:51.692Z,8.16
2017-03-24T01:36:52.461Z,8.26
2017-03-24T01:37:53.482Z,8.18
2017-03-24T01:38:54.253Z,8.09
2017-03-24T01:39:55.026Z,8.23
2017-03-24T01:40:55.796Z,8.16
2017-03-24T01:41:56.623Z,8.26
2017-03-24T01:42:57.671Z,8.13
2017-03-24T01:43:58.438Z,8.13
2017-03-24T01:44:59.207Z,8.15
2017-03-24T01:45:59.988Z,8.09
2017-03-24T01:47:00.755Z,8.10
2017-03-24T01:48:02.376Z,8.08
2017-03-24T01:49:03.156Z,8.16
2017-03-24T01:50:03.918Z,8.12
2017-03-24T01:51:04.688Z,8.15
2017-03-24T01:52:05.461Z,8.18
2017-03-24T01:53:06.531Z,8.13
2017-03-24T01:54:07.302Z,8.13
2017-03-24T01:55:08.073Z,8.09
2017-03-24T01:56:08.849Z,8.12
2017-03-24T01:57:09.617Z,8.18
2017-03-24T01:58:10.690Z,8.13
2017-03-24T01:59:11.651Z,8.18
2017-03-24T02:00:12.420Z,8.13
2017-03-24T02:01:13.191Z,8.26
2017-03-24T02:02:13.961Z,8.13
2017-03-24T02:03:15.032Z,8.12
2017-03-24T02:04:15.803Z,8.15
2017-03-24T02:05:16.575Z,8.10
2017-03-24T02:06:17.345Z,8.16
2017-03-24T02:07:18.117Z,8.12
2017-03-24T02:08:19.188Z,8.12
2017-03-24T02:09:19.961Z,8.13
2017-03-24T02:10:20.732Z,8.15
2017-03-24T02:11:21.506Z,8.20
2017-03-24T02:12:22.278Z,8.15
2017-03-24T02:13:23.347Z,8.15
2017-03-24T02:14:24.120Z,8.16
2017-03-24T02:15:24.892Z,8.13
2017-03-24T02:16:25.664Z,8.09
2017-03-24T02:17:26.437Z,8.15
2017-03-24T02:18:27.508Z,8.08
2017-03-24T02:19:28.280Z,8.09
2017-03-24T02:20:29.049Z,8.13
2017-03-24T02:21:29.821Z,8.13
2017-03-24T02:22:30.592Z,8.01
2017-03-24T02:23:31.613Z,8.03
2017-03-24T02:24:32.385Z,8.10
2017-03-24T02:25:33.159Z,8.12
2017-03-24T02:26:33.930Z,8.09
2017-03-24T02:27:34.703Z,8.09
2017-03-24T02:28:35.720Z,8.08
2017-03-24T02:29:36.489Z,8.12
2017-03-24T02:30:37.263Z,8.13
2017-03-24T02:31:38.033Z,7.98
2017-03-24T02:32:38.805Z,8.06
2017-03-24T02:33:39.825Z,8.12
2017-03-24T02:34:40.598Z,8.08
2017-03-24T02:35:41.370Z,8.10
2017-03-24T02:36:42.143Z,8.13
2017-03-24T02:37:42.913Z,8.06
2017-03-24T02:38:43.938Z,8.12
2017-03-24T02:39:44.703Z,8.12
2017-03-24T02:40:45.475Z,8.03
2017-03-24T02:41:46.244Z,7.98
2017-03-24T02:42:47.016Z,8.03
2017-03-24T02:43:48.038Z,7.98
2017-03-24T02:44:48.810Z,7.93
2017-03-24T02:45:49.582Z,8.00
2017-03-24T02:46:50.354Z,8.00
2017-03-24T02:47:51.124Z,8.05
2017-03-24T02:48:52.144Z,8.06
2017-03-24T02:49:53.033Z,7.97
2017-03-24T02:50:53.804Z,8.05
2017-03-24T02:51:54.575Z,8.05
2017-03-24T02:52:55.346Z,8.01
2017-03-24T02:53:56.365Z,8.10
2017-03-24T02:54:57.138Z,8.00
2017-03-24T02:55:57.909Z,8.03
2017-03-24T02:56:58.680Z,8.10
2017-03-24T02:57:59.451Z,8.03
2017-03-24T02:59:00.473Z,7.94
2017-03-24T03:00:01.243Z,8.00
2017-03-24T03:01:02.015Z,8.00
2017-03-24T03:02:02.786Z,8.03
2017-03-24T03:03:03.745Z,8.03
2017-03-24T03:04:04.763Z,8.03
2017-03-24T03:05:05.535Z,8.03
2017-03-24T03:06:06.304Z,8.01
2017-03-24T03:07:07.074Z,8.08
2017-03-24T03:08:07.844Z,8.06
2017-03-24T03:09:08.865Z,8.08
2017-03-24T03:10:09.635Z,8.00
2017-03-24T03:11:10.407Z,8.03
2017-03-24T03:12:11.179Z,7.98
2017-03-24T03:13:11.949Z,8.06
2017-03-24T03:14:12.970Z,7.97
2017-03-24T03:15:13.738Z,8.05
2017-03-24T03:16:14.509Z,8.00
2017-03-24T03:17:15.280Z,8.06
2017-03-24T03:18:16.050Z,8.03
2017-03-24T03:19:17.158Z,7.91
2017-03-24T03:20:17.949Z,7.97
2017-03-24T03:21:18.721Z,7.97
2017-03-24T03:22:19.492Z,7.93
2017-03-24T03:23:20.261Z,8.01
2017-03-24T03:24:21.284Z,7.97
2017-03-24T03:25:22.054Z,8.06
2017-03-24T03:26:22.823Z,7.95
2017-03-24T03:27:23.595Z,7.98
2017-03-24T03:28:24.368Z,7.94
2017-03-24T03:29:25.386Z,7.90
2017-03-24T03:30:26.158Z,7.90
2017-03-24T03:31:26.927Z,7.88
2017-03-24T03:32:27.699Z,7.91
2017-03-24T03:33:28.468Z,7.88
2017-03-24T03:34:29.540Z,7.90
2017-03-24T03:35:30.311Z,7.87
2017-03-24T03:36:31.082Z,7.87
2017-03-24T03:37:31.854Z,7.83
2017-03-24T03:38:32.624Z,7.90
2017-03-24T03:39:33.645Z,7.77
2017-03-24T03:40:34.417Z,7.79
2017-03-24T03:41:35.188Z,7.87
2017-03-24T03:42:35.960Z,7.76
2017-03-24T03:43:36.732Z,7.70
2017-03-24T03:44:37.751Z,7.72
2017-03-24T03:45:38.524Z,7.75
2017-03-24T03:46:39.296Z,7.82
2017-03-24T03:47:40.066Z,7.79
2017-03-24T03:48:40.833Z,7.80
2017-03-24T03:49:41.858Z,7.76
2017-03-24T03:50:42.626Z,7.77
2017-03-24T03:51:43.396Z,7.72
2017-03-24T03:52:44.164Z,7.69
2017-03-24T03:53:44.934Z,7.67
2017-03-24T03:54:45.955Z,7.63
2017-03-24T03:55:46.727Z,7.73
2017-03-24T03:56:47.495Z,7.73
2017-03-24T03:57:48.265Z,7.76
2017-03-24T03:58:49.034Z,7.77
2017-03-24T03:59:50.055Z,7.77
2017-03-24T04:00:50.829Z,7.90
2017-03-24T04:01:51.600Z,7.79
2017-03-24T04:02:52.369Z,7.83
2017-03-24T04:03:53.139Z,7.77
2017-03-24T04:04:54.156Z,7.75
2017-03-24T04:05:54.926Z,7.80
2017-03-24T04:06:55.878Z,7.85
2017-03-24T04:07:56.650Z,7.73
2017-03-24T04:08:57.418Z,7.69
2017-03-24T04:09:58.488Z,7.67
2017-03-24T04:10:59.254Z,7.69
2017-03-24T04:12:00.020Z,7.80
2017-03-24T04:13:00.788Z,7.72
2017-03-24T04:14:01.558Z,7.70
2017-03-24T04:15:02.626Z,7.67
2017-03-24T04:16:03.395Z,7.69
2017-03-24T04:17:04.163Z,7.76
2017-03-24T04:18:04.932Z,7.70
2017-03-24T04:19:05.700Z,7.67
2017-03-24T04:20:06.767Z,7.70
2017-03-24T04:21:07.535Z,7.72
2017-03-24T04:22:08.303Z,7.73
2017-03-24T04:23:09.073Z,7.70
2017-03-24T04:24:09.840Z,7.72
2017-03-24T04:25:10.859Z,7.75
2017-03-24T04:26:11.630Z,7.70
2017-03-24T04:27:12.403Z,7.66
2017-03-24T04:28:13.172Z,7.75
2017-03-24T04:29:13.941Z,7.75
2017-03-24T04:30:15.008Z,7.69
2017-03-24T04:31:15.776Z,7.70
2017-03-24T04:32:16.545Z,7.51
2017-03-24T04:33:17.313Z,7.56
2017-03-24T04:34:18.079Z,7.58
2017-03-24T04:35:19.244Z,7.50
2017-03-24T04:36:20.003Z,7.36
2017-03-24T04:37:20.775Z,7.40
2017-03-24T04:38:21.538Z,7.42
2017-03-24T04:39:22.307Z,7.40
2017-03-24T04:40:23.376Z,7.43
2017-03-24T04:41:24.148Z,7.48
2017-03-24T04:42:24.913Z,7.36
2017-03-24T04:43:25.686Z,7.43
2017-03-24T04:44:26.455Z,7.36
2017-03-24T04:45:27.476Z,7.35
2017-03-24T04:46:28.242Z,7.38
2017-03-24T04:47:29.010Z,7.40
2017-03-24T04:48:29.777Z,7.35
2017-03-24T04:49:30.548Z,7.38
2017-03-24T04:50:31.567Z,7.38
2017-03-24T04:51:32.337Z,7.39
2017-03-24T04:52:33.106Z,7.33
2017-03-24T04:53:33.874Z,7.28
2017-03-24T04:54:34.643Z,7.28
2017-03-24T04:55:35.662Z,7.31
2017-03-24T04:56:36.434Z,7.23
2017-03-24T04:57:37.206Z,7.20
2017-03-24T04:58:37.974Z,7.23
2017-03-24T04:59:38.738Z,7.21
2017-03-24T05:00:39.758Z,7.18
2017-03-24T05:01:40.525Z,7.25
2017-03-24T05:02:41.292Z,7.21
2017-03-24T05:03:42.064Z,7.20
2017-03-24T05:04:42.833Z,7.21
2017-03-24T05:05:43.852Z,7.20
2017-03-24T05:06:44.622Z,7.20
2017-03-24T05:07:45.392Z,7.15
2017-03-24T05:08:46.162Z,7.03
2017-03-24T05:09:46.933Z,7.06
2017-03-24T05:10:48.001Z,7.07
2017-03-24T05:11:48.773Z,7.17
2017-03-24T05:12:49.541Z,7.14
2017-03-24T05:13:50.308Z,7.10
2017-03-24T05:14:51.079Z,7.06
2017-03-24T05:15:52.101Z,7.14
2017-03-24T05:16:52.869Z,7.05
2017-03-24T05:17:53.644Z,7.10
2017-03-24T05:18:54.412Z,7.13
2017-03-24T05:19:55.366Z,7.11
2017-03-24T05:20:56.389Z,7.05
2017-03-24T05:21:57.162Z,7.06
2017-03-24T05:22:57.937Z,7.14
2017-03-24T05:23:58.708Z,7.13
2017-03-24T05:24:59.482Z,7.03
2017-03-24T05:26:00.497Z,7.06
2017-03-24T05:27:01.269Z,7.23
2017-03-24T05:28:02.041Z,7.17
2017-03-24T05:29:02.809Z,7.06
2017-03-24T05:30:03.581Z,7.17
2017-03-24T05:31:04.606Z,7.11
2017-03-24T05:32:05.379Z,7.13
2017-03-24T05:33:06.148Z,7.05
2017-03-24T05:34:06.924Z,7.10
2017-03-24T05:35:07.696Z,7.07
2017-03-24T05:36:08.717Z,7.13
2017-03-24T05:37:09.488Z,7.11
2017-03-24T05:38:10.260Z,7.06
2017-03-24T05:39:11.033Z,7.15
2017-03-24T05:40:11.803Z,7.18
2017-03-24T05:41:12.822Z,7.06
2017-03-24T05:42:13.597Z,7.07
2017-03-24T05:43:14.372Z,7.11
2017-03-24T05:44:15.142Z,7.13
2017-03-24T05:45:15.912Z,7.06
2017-03-24T05:46:16.936Z,7.03
2017-03-24T05:47:17.711Z,7.11
2017-03-24T05:48:18.526Z,6.99
2017-03-24T05:49:20.213Z,7.02
2017-03-24T05:50:20.988Z,7.07
2017-03-24T05:51:22.012Z,7.02
2017-03-24T05:52:22.784Z,7.03
2017-03-24T05:53:23.559Z,7.10
2017-03-24T05:54:24.340Z,6.97
2017-03-24T05:55:25.107Z,7.13
2017-03-24T05:56:26.128Z,7.10
2017-03-24T05:57:26.906Z,7.10
2017-03-24T05:58:27.680Z,7.06
2017-03-24T05:59:28.451Z,7.07
2017-03-24T06:00:29.231Z,7.14
2017-03-24T06:01:30.320Z,7.15
2017-03-24T06:02:31.099Z,7.07
2017-03-24T06:03:31.871Z,7.10
2017-03-24T06:04:32.648Z,7.10
2017-03-24T06:05:33.424Z,7.21
2017-03-24T06:06:34.547Z,7.17
2017-03-24T06:07:35.327Z,7.23
2017-03-24T06:08:36.097Z,7.31
2017-03-24T06:09:36.870Z,7.24
2017-03-24T06:10:37.649Z,7.21
2017-03-24T06:11:38.769Z,7.33
2017-03-24T06:12:39.541Z,7.45
2017-03-24T06:13:40.314Z,7.39
2017-03-24T06:14:41.086Z,7.53
2017-03-24T06:15:42.046Z,7.53
2017-03-24T06:16:43.119Z,7.54
2017-03-24T06:17:43.893Z,7.67
2017-03-24T06:18:44.668Z,7.66
2017-03-24T06:19:45.445Z,7.57
2017-03-24T06:20:46.217Z,7.69
2017-03-24T06:21:47.291Z,7.70
2017-03-24T06:22:48.070Z,7.69
2017-03-24T06:23:48.853Z,7.76
2017-03-24T06:24:49.622Z,7.85
2017-03-24T06:25:50.400Z,7.87
2017-03-24T06:26:51.501Z,7.88
2017-03-24T06:27:52.258Z,7.95
2017-03-24T06:28:53.035Z,8.00
2017-03-24T06:29:53.811Z,8.03
2017-03-24T06:30:54.588Z,7.95
2017-03-24T06:31:55.667Z,7.98
2017-03-24T06:32:56.445Z,8.03
2017-03-24T06:33:57.223Z,8.09
2017-03-24T06:34:58.002Z,8.00
2017-03-24T06:35:58.779Z,8.10
2017-03-24T06:36:59.854Z,8.10
2017-03-24T06:38:00.630Z,8.24
2017-03-24T06:39:01.406Z,8.38
2017-03-24T06:40:02.185Z,8.42
2017-03-24T06:41:02.965Z,8.44
2017-03-24T06:42:03.991Z,8.56
2017-03-24T06:43:04.769Z,8.34
2017-03-24T06:44:05.732Z,8.33
2017-03-24T06:45:06.507Z,8.34
2017-03-24T06:46:07.283Z,8.38
2017-03-24T06:47:08.312Z,8.52
2017-03-24T06:48:09.096Z,8.78
2017-03-24T06:49:09.871Z,8.94
2017-03-24T06:50:10.648Z,8.94
2017-03-24T06:51:11.424Z,8.89
2017-03-24T06:52:12.451Z,8.89
2017-03-24T06:53:13.230Z,8.97
2017-03-24T06:54:14.008Z,8.99
2017-03-24T06:55:14.788Z,9.19
2017-03-24T06:56:15.569Z,9.41
2017-03-24T06:57:16.600Z,9.34
2017-03-24T06:58:17.378Z,9.46
2017-03-24T06:59:18.158Z,9.54
2017-03-24T07:00:18.941Z,9.68
2017-03-24T07:01:19.719Z,9.74
2017-03-24T07:02:20.753Z,9.82
2017-03-24T07:03:21.533Z,9.84
2017-03-24T07:04:22.317Z,9.91
2017-03-24T07:05:23.097Z,9.65
2017-03-24T07:06:23.878Z,9.74
2017-03-24T07:07:24.911Z,9.79
2017-03-24T07:08:25.694Z,9.77
2017-03-24T07:09:26.475Z,9.86
2017-03-24T07:10:27.257Z,9.84
2017-03-24T07:11:28.039Z,10.15
2017-03-24T07:12:29.069Z,10.34
2017-03-24T07:13:29.853Z,10.34
2017-03-24T07:14:30.635Z,10.48
2017-03-24T07:15:31.420Z,10.82
2017-03-24T07:16:32.202Z,10.86
2017-03-24T07:17:33.240Z,10.53
2017-03-24T07:18:34.024Z,10.46
2017-03-24T07:19:34.807Z,10.57
2017-03-24T07:20:35.591Z,10.61
2017-03-24T07:21:36.376Z,10.71
2017-03-24T07:22:37.413Z,10.49
2017-03-24T07:23:38.198Z,10.64
2017-03-24T07:24:38.982Z,10.87
2017-03-24T07:25:39.769Z,11.04
2017-03-24T07:26:40.554Z,10.93
2017-03-24T07:27:41.588Z,10.78
2017-03-24T07:28:42.370Z,10.57
2017-03-24T07:29:43.154Z,10.68
2017-03-24T07:30:43.938Z,10.63
2017-03-24T07:31:44.722Z,10.51
2017-03-24T07:32:45.757Z,10.42
2017-03-24T07:33:46.540Z,10.44
2017-03-24T07:34:47.325Z,10.89
2017-03-24T07:35:48.112Z,11.23
2017-03-24T07:36:48.897Z,11.37
2017-03-24T07:37:49.933Z,11.43
2017-03-24T07:38:50.719Z,11.40
2017-03-24T07:39:51.503Z,11.40
2017-03-24T07:40:52.287Z,11.52
2017-03-24T07:41:53.074Z,11.54
2017-03-24T07:42:54.111Z,11.78
2017-03-24T07:43:54.905Z,12.07
2017-03-24T07:44:55.687Z,12.07
2017-03-24T07:45:56.470Z,12.21
2017-03-24T07:46:57.258Z,11.70
2017-03-24T07:47:58.292Z,11.68
2017-03-24T07:48:59.081Z,11.80
2017-03-24T07:49:59.870Z,11.55
2017-03-24T07:51:00.654Z,11.81
2017-03-24T07:52:01.436Z,11.78
2017-03-24T07:53:02.473Z,11.88
2017-03-24T07:54:03.257Z,11.52
2017-03-24T07:55:04.047Z,11.77
2017-03-24T07:56:04.832Z,11.63
2017-03-24T07:57:05.618Z,11.44
2017-03-24T07:58:06.658Z,11.47
2017-03-24T07:59:07.442Z,11.60
2017-03-24T08:00:08.228Z,11.48
2017-03-24T08:01:09.012Z,11.83
2017-03-24T08:02:09.798Z,11.94
2017-03-24T08:03:10.837Z,12.20
2017-03-24T08:04:11.620Z,12.43
2017-03-24T08:05:12.406Z,12.37
2017-03-24T08:06:13.197Z,12.65
2017-03-24T08:07:13.989Z,12.70
2017-03-24T08:08:15.029Z,12.72
2017-03-24T08:09:15.815Z,13.04
2017-03-24T08:10:16.602Z,12.94
2017-03-24T08:11:17.391Z,13.04
2017-03-24T08:12:18.177Z,13.15
2017-03-24T08:13:19.217Z,13.11
2017-03-24T08:14:20.192Z,12.78
2017-03-24T08:15:20.983Z,12.73
2017-03-24T08:16:21.768Z,12.72
2017-03-24T08:17:22.568Z,12.49
2017-03-24T08:18:23.603Z,13.12
2017-03-24T08:19:24.395Z,13.41
2017-03-24T08:20:25.182Z,13.79
2017-03-24T08:21:25.973Z,13.93
2017-03-24T08:22:26.768Z,13.50
2017-03-24T08:23:27.806Z,13.31
2017-03-24T08:24:28.600Z,13.01
2017-03-24T08:25:29.395Z,12.83
2017-03-24T08:26:30.187Z,13.01
2017-03-24T08:27:30.973Z,13.27
2017-03-24T08:28:32.021Z,13.03
2017-03-24T08:29:32.817Z,13.20
2017-03-24T08:30:33.621Z,12.24
2017-03-24T08:31:34.448Z,12.50
2017-03-24T08:32:35.242Z,13.01
2017-03-24T08:33:36.285Z,13.30
2017-03-24T08:34:37.083Z,13.41
2017-03-24T08:35:37.878Z,13.87
2017-03-24T08:36:38.673Z,13.95
2017-03-24T08:37:39.469Z,13.25
2017-03-24T08:38:40.511Z,12.86
2017-03-24T08:39:41.304Z,13.03
2017-03-24T08:40:42.098Z,13.27
2017-03-24T08:41:42.889Z,13.28
2017-03-24T08:42:43.683Z,13.31
2017-03-24T08:43:44.726Z,13.67
2017-03-24T08:44:45.519Z,13.60
2017-03-24T08:45:46.311Z,13.63
2017-03-24T08:46:47.110Z,13.68
2017-03-24T08:47:47.903Z,13.23
2017-03-24T08:48:48.949Z,13.57
2017-03-24T08:49:49.746Z,13.72
2017-03-24T08:50:50.541Z,13.93
2017-03-24T08:51:51.335Z,13.30
2017-03-24T08:52:52.130Z,13.75
2017-03-24T08:53:53.174Z,14.23
2017-03-24T08:54:53.967Z,14.26
2017-03-24T08:55:54.765Z,14.50
2017-03-24T08:56:55.561Z,14.11
2017-03-24T08:57:56.353Z,14.26
2017-03-24T08:58:57.403Z,13.79
2017-03-24T08:59:58.202Z,13.60
2017-03-24T09:00:58.995Z,14.10
2017-03-24T09:01:59.788Z,14.15
2017-03-24T09:03:00.584Z,14.32
2017-03-24T09:04:01.632Z,14.23
2017-03-24T09:05:02.431Z,13.63
2017-03-24T09:06:03.226Z,12.73
2017-03-24T09:07:04.024Z,12.95
2017-03-24T09:08:04.821Z,13.22
2017-03-24T09:09:05.870Z,13.53
2017-03-24T09:10:06.665Z,13.71
2017-03-24T09:11:07.459Z,13.65
2017-03-24T09:12:08.255Z,13.87
2017-03-24T09:13:09.055Z,14.54
2017-03-24T09:14:10.098Z,14.79
2017-03-24T09:15:10.892Z,14.88
2017-03-24T09:16:11.684Z,14.84
2017-03-24T09:17:12.477Z,15.31
2017-03-24T09:18:13.270Z,15.15
2017-03-24T09:19:14.317Z,15.65
2017-03-24T09:20:15.112Z,15.57
2017-03-24T09:21:15.903Z,15.84
2017-03-24T09:22:16.700Z,15.80
2017-03-24T09:23:17.497Z,15.98
2017-03-24T09:24:18.543Z,15.79
2017-03-24T09:25:19.337Z,15.97
2017-03-24T09:26:20.127Z,15.57
2017-03-24T09:27:20.920Z,15.75
2017-03-24T09:28:21.716Z,15.67
2017-03-24T09:29:22.946Z,15.72
2017-03-24T09:30:23.742Z,15.75
2017-03-24T09:31:24.538Z,15.83
2017-03-24T09:32:25.330Z,15.86
2017-03-24T09:33:26.126Z,16.04
2017-03-24T09:34:27.172Z,15.72
2017-03-24T09:35:27.966Z,15.97
2017-03-24T09:36:28.758Z,16.09
2017-03-24T09:37:29.554Z,15.90
2017-03-24T09:38:30.353Z,16.13
2017-03-24T09:39:31.394Z,15.80
2017-03-24T09:40:32.189Z,15.79
2017-03-24T09:41:32.982Z,15.44
2017-03-24T09:42:33.775Z,15.70
2017-03-24T09:43:34.574Z,15.57
2017-03-24T09:44:35.621Z,15.91
2017-03-24T09:45:36.410Z,15.84
2017-03-24T09:46:37.204Z,16.00
2017-03-24T09:47:38.000Z,16.64
2017-03-24T09:48:38.790Z,16.97
2017-03-24T09:49:39.840Z,16.83
2017-03-24T09:50:40.632Z,16.33
2017-03-24T09:51:41.427Z,16.87
2017-03-24T09:52:42.223Z,16.74
2017-03-24T09:53:43.017Z,16.87
2017-03-24T09:54:44.060Z,16.89
2017-03-24T09:55:44.852Z,16.10
2017-03-24T09:56:45.645Z,16.20
2017-03-24T09:57:46.447Z,16.16
2017-03-24T09:58:47.240Z,15.15
2017-03-24T09:59:48.287Z,15.33
2017-03-24T10:00:49.083Z,16.16
2017-03-24T10:01:49.876Z,17.02
2017-03-24T10:02:50.669Z,16.71
2017-03-24T10:03:51.462Z,16.47
2017-03-24T10:04:52.512Z,16.54
2017-03-24T10:05:53.305Z,16.90
2017-03-24T10:06:54.102Z,17.09
2017-03-24T10:07:54.893Z,17.06
2017-03-24T10:08:55.692Z,17.20
2017-03-24T10:09:56.739Z,17.02
2017-03-24T10:10:57.532Z,16.50
2017-03-24T10:11:58.325Z,16.17
2017-03-24T10:12:59.118Z,16.39
2017-03-24T10:13:59.916Z,16.79
2017-03-24T10:15:00.963Z,17.01
2017-03-24T10:16:01.756Z,17.12
2017-03-24T10:17:02.548Z,17.78
2017-03-24T10:18:03.342Z,17.42
2017-03-24T10:19:04.133Z,17.64
2017-03-24T10:20:05.181Z,17.83
2017-03-24T10:21:05.972Z,17.76
2017-03-24T10:22:06.777Z,17.87
2017-03-24T10:23:07.564Z,16.89
2017-03-24T10:24:08.361Z,17.45
2017-03-24T10:25:09.413Z,17.65
2017-03-24T10:26:10.205Z,17.86
2017-03-24T10:27:10.999Z,17.92
2017-03-24T10:28:11.795Z,18.04
2017-03-24T10:29:12.591Z,17.65
2017-03-24T10:30:13.642Z,17.70
2017-03-24T10:31:14.431Z,17.85
2017-03-24T10:32:15.227Z,17.92
2017-03-24T10:33:16.025Z,18.49
2017-03-24T10:34:16.822Z,17.76
2017-03-24T10:35:17.870Z,16.50
2017-03-24T10:36:18.662Z,17.49
2017-03-24T10:37:19.643Z,17.36
2017-03-24T10:38:20.435Z,16.66
2017-03-24T10:39:21.229Z,15.75
2017-03-24T10:40:22.278Z,14.62
2017-03-24T10:41:23.076Z,14.43
2017-03-24T10:42:23.869Z,14.88
2017-03-24T10:43:24.667Z,15.84
2017-03-24T10:44:25.457Z,16.81
2017-03-24T10:45:26.550Z,16.91
2017-03-24T10:46:27.344Z,17.34
2017-03-24T10:47:28.142Z,17.38
2017-03-24T10:48:28.938Z,17.72
2017-03-24T10:49:29.733Z,18.33
2017-03-24T10:50:30.782Z,18.41
2017-03-24T10:51:31.575Z,18.71
2017-03-24T10:52:32.372Z,18.93
2017-03-24T10:53:33.175Z,19.14
2017-03-24T10:54:33.964Z,19.22
2017-03-24T10:55:35.012Z,19.04
2017-03-24T10:56:35.849Z,19.58
2017-03-24T10:57:36.607Z,19.02
2017-03-24T10:58:37.404Z,18.56
2017-03-24T10:59:38.204Z,18.63
2017-03-24T11:00:39.250Z,18.53
2017-03-24T11:01:40.049Z,18.92
2017-03-24T11:02:41.031Z,19.07
2017-03-24T11:03:41.827Z,19.76
2017-03-24T11:04:42.623Z,19.99
2017-03-24T11:05:43.674Z,20.22
2017-03-24T11:06:44.471Z,20.55
2017-03-24T11:07:45.457Z,20.50
2017-03-24T11:08:46.257Z,21.14
2017-03-24T11:09:47.054Z,21.55
2017-03-24T11:10:48.100Z,21.80
2017-03-24T11:11:48.900Z,21.73
2017-03-24T11:12:49.699Z,22.15
2017-03-24T11:13:50.497Z,21.73
2017-03-24T11:14:51.294Z,21.73
2017-03-24T11:15:52.346Z,20.29
2017-03-24T11:16:53.144Z,20.70
2017-03-24T11:17:53.939Z,19.89
2017-03-24T11:18:54.736Z,19.09
2017-03-24T11:19:55.537Z,18.19
2017-03-24T11:20:56.582Z,18.55
2017-03-24T11:21:57.378Z,18.56
2017-03-24T11:22:58.362Z,18.56
2017-03-24T11:23:59.157Z,18.44
2017-03-24T11:24:59.955Z,18.04
2017-03-24T11:26:01.003Z,17.74
2017-03-24T11:27:01.793Z,17.98
2017-03-24T11:28:02.589Z,17.87
2017-03-24T11:29:03.384Z,17.83
2017-03-24T11:30:04.182Z,17.48
2017-03-24T11:31:05.226Z,18.08
2017-03-24T11:32:06.212Z,18.44
2017-03-24T11:33:07.009Z,18.66
2017-03-24T11:34:07.808Z,19.02
2017-03-24T11:35:08.600Z,19.31
2017-03-24T11:36:09.646Z,19.49
2017-03-24T11:37:10.439Z,20.02
2017-03-24T11:38:11.238Z,19.71
2017-03-24T11:39:12.032Z,18.90
2017-03-24T11:40:12.831Z,19.91
2017-03-24T11:41:13.879Z,19.81
2017-03-24T11:42:14.669Z,20.11
2017-03-24T11:43:15.465Z,20.44
2017-03-24T11:44:16.259Z,20.62
2017-03-24T11:45:17.053Z,20.60
2017-03-24T11:46:18.100Z,20.60
2017-03-24T11:47:18.897Z,20.59
2017-03-24T11:48:19.695Z,19.45
2017-03-24T11:49:20.490Z,19.79
2017-03-24T11:50:21.287Z,19.89
2017-03-24T11:51:22.329Z,19.63
2017-03-24T11:52:23.127Z,19.67
2017-03-24T11:53:23.927Z,20.26
2017-03-24T11:54:24.724Z,20.84
2017-03-24T11:55:25.521Z,21.05
2017-03-24T11:56:26.999Z,20.80
2017-03-24T11:57:27.727Z,21.03
2017-03-24T11:58:28.524Z,21.15
2017-03-24T11:59:29.323Z,21.18
2017-03-24T12:00:30.118Z,21.15
2017-03-24T12:01:31.167Z,21.83
2017-03-24T12:02:31.956Z,21.40
2017-03-24T12:03:32.750Z,21.87
2017-03-24T12:04:33.548Z,22.14
2017-03-24T12:05:34.342Z,22.29
2017-03-24T12:06:35.386Z,22.38
2017-03-24T12:07:36.180Z,21.30
2017-03-24T12:08:36.979Z,20.97
2017-03-24T12:09:37.774Z,20.82
2017-03-24T12:10:38.575Z,20.82
2017-03-24T12:11:39.619Z,20.80
2017-03-24T12:12:40.415Z,21.03
2017-03-24T12:13:41.208Z,21.09
2017-03-24T12:14:42.004Z,21.57
2017-03-24T12:15:42.802Z,21.57
2017-03-24T12:16:43.849Z,21.33
2017-03-24T12:17:44.641Z,21.98
2017-03-24T12:18:45.436Z,21.79
2017-03-24T12:19:46.418Z,21.35
2017-03-24T12:20:47.405Z,21.15
2017-03-24T12:21:48.454Z,21.52
2017-03-24T12:22:49.249Z,21.58
2017-03-24T12:23:50.047Z,21.72
2017-03-24T12:24:50.841Z,21.69
2017-03-24T12:25:51.636Z,21.45
2017-03-24T12:26:52.683Z,21.87
2017-03-24T12:27:53.476Z,22.22
2017-03-24T12:28:54.273Z,21.80
2017-03-24T12:29:55.068Z,21.85
2017-03-24T12:30:55.861Z,21.30
2017-03-24T12:31:56.915Z,20.90
2017-03-24T12:32:57.705Z,21.55
2017-03-24T12:33:58.504Z,21.93
2017-03-24T12:34:59.295Z,21.51
2017-03-24T12:36:00.092Z,21.42
2017-03-24T12:37:01.139Z,21.29
2017-03-24T12:38:01.944Z,21.80
2017-03-24T12:39:02.734Z,22.62
2017-03-24T12:40:03.529Z,22.45
2017-03-24T12:41:04.324Z,22.39
2017-03-24T12:42:05.369Z,22.60
2017-03-24T12:43:06.164Z,22.73
2017-03-24T12:44:06.964Z,22.62
2017-03-24T12:45:07.760Z,22.84
2017-03-24T12:46:08.555Z,23.48
2017-03-24T12:47:09.602Z,23.23
2017-03-24T12:48:10.400Z,23.73
2017-03-24T12:49:11.195Z,23.66
2017-03-24T12:50:11.993Z,24.01
2017-03-24T12:51:12.790Z,23.99
2017-03-24T12:52:13.838Z,23.84
2017-03-24T12:53:14.638Z,22.98
2017-03-24T12:54:15.433Z,22.76
2017-03-24T12:55:16.235Z,22.36
2017-03-24T12:56:17.030Z,21.79
2017-03-24T12:57:18.078Z,21.87
2017-03-24T12:58:18.875Z,21.30
2017-03-24T12:59:19.675Z,20.85
2017-03-24T13:00:20.470Z,20.80
2017-03-24T13:01:21.268Z,20.00
2017-03-24T13:02:22.310Z,20.21
2017-03-24T13:03:23.107Z,20.62
2017-03-24T13:04:23.904Z,20.67
2017-03-24T13:05:24.698Z,21.14
2017-03-24T13:06:25.494Z,20.97
2017-03-24T13:07:26.544Z,21.18
2017-03-24T13:08:27.339Z,21.46
2017-03-24T13:09:28.134Z,21.95
2017-03-24T13:10:28.932Z,22.50
2017-03-24T13:11:29.726Z,21.98
2017-03-24T13:12:30.770Z,21.77
2017-03-24T13:13:31.567Z,22.04
2017-03-24T13:14:32.367Z,21.87
2017-03-24T13:15:33.158Z,22.30
2017-03-24T13:16:33.953Z,22.76
2017-03-24T13:17:35.002Z,22.96